sensor_id;sensor_type;location;lat;lon;timestamp;temperature;humidity
24410;DHT22;12543;53.364;-1.504;2023-04-15T00:01:06;6.70;99.90
24410;DHT22;12543;53.364;-1.504;2023-04-15T00:03:33;6.70;99.90
24410;DHT22;12543;53.364;-1.504;2023-04-15T00:06:01;6.70;99.90
24410;DHT22;12543;53.364;-1.504;2023-04-15T00:08:29;6.70;99.90
24410;DHT22;12543;53.364;-1.504;2023-04-15T00:10:56;6.70;99.90
24410;DHT22;12543;53.364;-1.504;2023-04-15T00:13:28;6.70;99.90
24410;DHT22;12543;53.364;-1.504;2023-04-15T00:15:55;6.70;99.90
24410;DHT22;12543;53.364;-1.504;2023-04-15T00:18:23;6.70;99.90
24410;DHT22;12543;53.364;-1.504;2023-04-15T00:20:50;6.70;99.90
24410;DHT22;12543;53.364;-1.504;2023-04-15T00:23:18;6.70;99.90
24410;DHT22;12543;53.364;-1.504;2023-04-15T00:25:45;6.70;99.90
24410;DHT22;12543;53.364;-1.504;2023-04-15T00:28:12;6.70;99.90
24410;DHT22;12543;53.364;-1.504;2023-04-15T00:30:39;6.70;99.90
24410;DHT22;12543;53.364;-1.504;2023-04-15T00:33:07;6.70;99.90
24410;DHT22;12543;53.364;-1.504;2023-04-15T00:35:36;6.70;99.90
24410;DHT22;12543;53.364;-1.504;2023-04-15T00:38:04;6.80;99.90
24410;DHT22;12543;53.364;-1.504;2023-04-15T00:40:32;6.70;99.90
24410;DHT22;12543;53.364;-1.504;2023-04-15T00:43:00;6.70;99.90
24410;DHT22;12543;53.364;-1.504;2023-04-15T00:45:27;6.70;99.90
24410;DHT22;12543;53.364;-1.504;2023-04-15T00:47:54;6.70;99.90
24410;DHT22;12543;53.364;-1.504;2023-04-15T00:50:21;6.70;99.90
24410;DHT22;12543;53.364;-1.504;2023-04-15T00:52:48;6.70;99.90
24410;DHT22;12543;53.364;-1.504;2023-04-15T00:55:15;6.70;99.90
24410;DHT22;12543;53.364;-1.504;2023-04-15T00:57:42;6.70;99.90
24410;DHT22;12543;53.364;-1.504;2023-04-15T01:00:10;6.70;99.90
24410;DHT22;12543;53.364;-1.504;2023-04-15T01:02:37;6.70;99.90
24410;DHT22;12543;53.364;-1.504;2023-04-15T01:05:05;6.70;99.90
24410;DHT22;12543;53.364;-1.504;2023-04-15T01:07:33;6.60;99.90
24410;DHT22;12543;53.364;-1.504;2023-04-15T01:10:01;6.60;99.90
24410;DHT22;12543;53.364;-1.504;2023-04-15T01:12:28;6.60;99.90
24410;DHT22;12543;53.364;-1.504;2023-04-15T01:14:58;6.60;99.90
24410;DHT22;12543;53.364;-1.504;2023-04-15T01:17:25;6.60;99.90
24410;DHT22;12543;53.364;-1.504;2023-04-15T01:19:54;6.60;99.90
24410;DHT22;12543;53.364;-1.504;2023-04-15T01:22:21;6.60;99.90
24410;DHT22;12543;53.364;-1.504;2023-04-15T01:25:05;6.60;99.90
24410;DHT22;12543;53.364;-1.504;2023-04-15T01:27:36;6.60;99.90
24410;DHT22;12543;53.364;-1.504;2023-04-15T01:30:06;6.60;99.90
24410;DHT22;12543;53.364;-1.504;2023-04-15T01:32:33;6.60;99.90
24410;DHT22;12543;53.364;-1.504;2023-04-15T01:35:00;6.50;99.90
24410;DHT22;12543;53.364;-1.504;2023-04-15T01:37:28;6.50;99.90
24410;DHT22;12543;53.364;-1.504;2023-04-15T01:39:55;6.60;99.90
24410;DHT22;12543;53.364;-1.504;2023-04-15T01:42:24;6.50;99.90
24410;DHT22;12543;53.364;-1.504;2023-04-15T01:44:51;6.50;99.90
24410;DHT22;12543;53.364;-1.504;2023-04-15T01:47:19;6.50;99.90
24410;DHT22;12543;53.364;-1.504;2023-04-15T01:49:46;6.50;99.90
24410;DHT22;12543;53.364;-1.504;2023-04-15T01:52:13;6.50;99.90
24410;DHT22;12543;53.364;-1.504;2023-04-15T01:54:41;6.50;99.90
24410;DHT22;12543;53.364;-1.504;2023-04-15T01:57:08;6.50;99.90
24410;DHT22;12543;53.364;-1.504;2023-04-15T01:59:35;6.50;99.90
24410;DHT22;12543;53.364;-1.504;2023-04-15T02:02:03;6.50;99.90
24410;DHT22;12543;53.364;-1.504;2023-04-15T02:04:31;6.50;99.90
24410;DHT22;12543;53.364;-1.504;2023-04-15T02:06:59;6.50;99.90
24410;DHT22;12543;53.364;-1.504;2023-04-15T02:09:26;6.50;99.90
24410;DHT22;12543;53.364;-1.504;2023-04-15T02:11:53;6.50;99.90
24410;DHT22;12543;53.364;-1.504;2023-04-15T02:14:20;6.50;99.90
24410;DHT22;12543;53.364;-1.504;2023-04-15T02:16:47;6.50;99.90
24410;DHT22;12543;53.364;-1.504;2023-04-15T02:19:15;6.50;99.90
24410;DHT22;12543;53.364;-1.504;2023-04-15T02:21:42;6.50;99.90
24410;DHT22;12543;53.364;-1.504;2023-04-15T02:24:09;6.50;99.90
24410;DHT22;12543;53.364;-1.504;2023-04-15T02:26:40;6.50;99.90
24410;DHT22;12543;53.364;-1.504;2023-04-15T02:29:07;6.60;99.90
24410;DHT22;12543;53.364;-1.504;2023-04-15T02:31:34;6.60;99.90
24410;DHT22;12543;53.364;-1.504;2023-04-15T02:34:06;6.50;99.90
24410;DHT22;12543;53.364;-1.504;2023-04-15T02:36:34;6.60;99.90
24410;DHT22;12543;53.364;-1.504;2023-04-15T02:39:01;6.60;99.90
24410;DHT22;12543;53.364;-1.504;2023-04-15T02:41:29;6.60;99.90
24410;DHT22;12543;53.364;-1.504;2023-04-15T02:43:56;6.60;99.90
24410;DHT22;12543;53.364;-1.504;2023-04-15T02:46:23;6.50;99.90
24410;DHT22;12543;53.364;-1.504;2023-04-15T02:48:50;6.60;99.90
24410;DHT22;12543;53.364;-1.504;2023-04-15T02:51:21;6.50;99.90
24410;DHT22;12543;53.364;-1.504;2023-04-15T02:53:49;6.50;99.90
24410;DHT22;12543;53.364;-1.504;2023-04-15T02:56:16;6.50;99.90
24410;DHT22;12543;53.364;-1.504;2023-04-15T02:58:45;6.50;99.90
24410;DHT22;12543;53.364;-1.504;2023-04-15T03:01:12;6.50;99.90
24410;DHT22;12543;53.364;-1.504;2023-04-15T03:03:40;6.50;99.90
24410;DHT22;12543;53.364;-1.504;2023-04-15T03:06:07;6.50;99.90
24410;DHT22;12543;53.364;-1.504;2023-04-15T03:08:35;6.50;99.90
24410;DHT22;12543;53.364;-1.504;2023-04-15T03:11:03;6.50;99.90
24410;DHT22;12543;53.364;-1.504;2023-04-15T03:13:31;6.40;99.90
24410;DHT22;12543;53.364;-1.504;2023-04-15T03:16:03;6.50;99.90
24410;DHT22;12543;53.364;-1.504;2023-04-15T03:18:31;6.40;99.90
24410;DHT22;12543;53.364;-1.504;2023-04-15T03:21:01;6.40;99.90
24410;DHT22;12543;53.364;-1.504;2023-04-15T03:23:31;6.40;99.90
24410;DHT22;12543;53.364;-1.504;2023-04-15T03:26:02;6.40;99.90
24410;DHT22;12543;53.364;-1.504;2023-04-15T03:28:31;6.40;99.90
24410;DHT22;12543;53.364;-1.504;2023-04-15T03:30:59;6.40;99.90
24410;DHT22;12543;53.364;-1.504;2023-04-15T03:33:26;6.40;99.90
24410;DHT22;12543;53.364;-1.504;2023-04-15T03:35:53;6.40;99.90
24410;DHT22;12543;53.364;-1.504;2023-04-15T03:38:20;6.40;99.90
24410;DHT22;12543;53.364;-1.504;2023-04-15T03:40:56;6.40;99.90
24410;DHT22;12543;53.364;-1.504;2023-04-15T03:43:23;6.40;99.90
24410;DHT22;12543;53.364;-1.504;2023-04-15T03:45:51;6.40;99.90
24410;DHT22;12543;53.364;-1.504;2023-04-15T03:48:17;6.40;99.90
24410;DHT22;12543;53.364;-1.504;2023-04-15T03:50:44;6.40;99.90
24410;DHT22;12543;53.364;-1.504;2023-04-15T03:53:11;6.40;99.90
24410;DHT22;12543;53.364;-1.504;2023-04-15T03:55:38;6.40;99.90
24410;DHT22;12543;53.364;-1.504;2023-04-15T03:58:05;6.40;99.90
24410;DHT22;12543;53.364;-1.504;2023-04-15T04:00:32;6.30;99.90
24410;DHT22;12543;53.364;-1.504;2023-04-15T04:02:59;6.40;99.90
24410;DHT22;12543;53.364;-1.504;2023-04-15T04:05:26;6.30;99.90
24410;DHT22;12543;53.364;-1.504;2023-04-15T04:07:53;6.30;99.90
24410;DHT22;12543;53.364;-1.504;2023-04-15T04:10:21;6.30;99.90
24410;DHT22;12543;53.364;-1.504;2023-04-15T04:12:47;6.30;99.90
24410;DHT22;12543;53.364;-1.504;2023-04-15T04:15:14;6.30;99.90
24410;DHT22;12543;53.364;-1.504;2023-04-15T04:17:41;6.30;99.90
24410;DHT22;12543;53.364;-1.504;2023-04-15T04:20:08;6.30;99.90
24410;DHT22;12543;53.364;-1.504;2023-04-15T04:22:39;6.30;99.90
24410;DHT22;12543;53.364;-1.504;2023-04-15T04:25:07;6.30;99.90
24410;DHT22;12543;53.364;-1.504;2023-04-15T04:27:34;6.30;99.90
24410;DHT22;12543;53.364;-1.504;2023-04-15T04:30:01;6.30;99.90
24410;DHT22;12543;53.364;-1.504;2023-04-15T04:32:28;6.30;99.90
24410;DHT22;12543;53.364;-1.504;2023-04-15T04:34:55;6.30;99.90
24410;DHT22;12543;53.364;-1.504;2023-04-15T04:37:22;6.30;99.90
24410;DHT22;12543;53.364;-1.504;2023-04-15T04:39:50;6.30;99.90
24410;DHT22;12543;53.364;-1.504;2023-04-15T04:42:17;6.30;99.90
24410;DHT22;12543;53.364;-1.504;2023-04-15T04:44:44;6.30;99.90
24410;DHT22;12543;53.364;-1.504;2023-04-15T04:47:20;6.30;99.90
24410;DHT22;12543;53.364;-1.504;2023-04-15T04:50:01;6.30;99.90
24410;DHT22;12543;53.364;-1.504;2023-04-15T04:52:43;6.30;99.90
24410;DHT22;12543;53.364;-1.504;2023-04-15T04:55:15;6.30;99.90
24410;DHT22;12543;53.364;-1.504;2023-04-15T04:57:45;6.30;99.90
24410;DHT22;12543;53.364;-1.504;2023-04-15T05:00:18;6.30;99.90
24410;DHT22;12543;53.364;-1.504;2023-04-15T05:02:45;6.30;99.90
24410;DHT22;12543;53.364;-1.504;2023-04-15T05:05:12;6.30;99.90
24410;DHT22;12543;53.364;-1.504;2023-04-15T05:07:39;6.20;99.90
24410;DHT22;12543;53.364;-1.504;2023-04-15T05:10:06;6.20;99.90
24410;DHT22;12543;53.364;-1.504;2023-04-15T05:12:34;6.20;99.90
24410;DHT22;12543;53.364;-1.504;2023-04-15T05:15:01;6.20;99.90
24410;DHT22;12543;53.364;-1.504;2023-04-15T05:17:28;6.20;99.90
24410;DHT22;12543;53.364;-1.504;2023-04-15T05:19:57;6.20;99.90
24410;DHT22;12543;53.364;-1.504;2023-04-15T05:22:24;6.20;99.90
24410;DHT22;12543;53.364;-1.504;2023-04-15T05:24:51;6.20;99.90
24410;DHT22;12543;53.364;-1.504;2023-04-15T05:27:18;6.10;99.90
24410;DHT22;12543;53.364;-1.504;2023-04-15T05:29:45;6.10;99.90
24410;DHT22;12543;53.364;-1.504;2023-04-15T05:32:12;6.10;99.90
24410;DHT22;12543;53.364;-1.504;2023-04-15T05:34:39;6.10;99.90
24410;DHT22;12543;53.364;-1.504;2023-04-15T05:37:06;6.10;99.90
24410;DHT22;12543;53.364;-1.504;2023-04-15T05:39:33;6.20;99.90
24410;DHT22;12543;53.364;-1.504;2023-04-15T05:42:00;6.20;99.90
24410;DHT22;12543;53.364;-1.504;2023-04-15T05:44:27;6.20;99.90
24410;DHT22;12543;53.364;-1.504;2023-04-15T05:46:54;6.20;99.90
24410;DHT22;12543;53.364;-1.504;2023-04-15T05:49:21;6.30;99.90
24410;DHT22;12543;53.364;-1.504;2023-04-15T05:51:48;6.30;99.90
24410;DHT22;12543;53.364;-1.504;2023-04-15T05:54:15;6.40;99.90
24410;DHT22;12543;53.364;-1.504;2023-04-15T05:56:45;6.30;99.90
24410;DHT22;12543;53.364;-1.504;2023-04-15T05:59:12;6.40;99.90
24410;DHT22;12543;53.364;-1.504;2023-04-15T06:01:39;6.40;99.90
24410;DHT22;12543;53.364;-1.504;2023-04-15T06:04:06;6.40;99.90
24410;DHT22;12543;53.364;-1.504;2023-04-15T06:06:33;6.40;99.90
24410;DHT22;12543;53.364;-1.504;2023-04-15T06:09:00;6.40;99.90
24410;DHT22;12543;53.364;-1.504;2023-04-15T06:11:27;6.40;99.90
24410;DHT22;12543;53.364;-1.504;2023-04-15T06:13:54;6.40;99.90
24410;DHT22;12543;53.364;-1.504;2023-04-15T06:16:22;6.40;99.90
24410;DHT22;12543;53.364;-1.504;2023-04-15T06:18:49;6.40;99.90
24410;DHT22;12543;53.364;-1.504;2023-04-15T06:21:15;6.40;99.90
24410;DHT22;12543;53.364;-1.504;2023-04-15T06:23:42;6.40;99.90
24410;DHT22;12543;53.364;-1.504;2023-04-15T06:26:09;6.40;99.90
24410;DHT22;12543;53.364;-1.504;2023-04-15T06:28:36;6.50;99.90
24410;DHT22;12543;53.364;-1.504;2023-04-15T06:31:03;6.50;99.90
24410;DHT22;12543;53.364;-1.504;2023-04-15T06:33:30;6.50;99.90
24410;DHT22;12543;53.364;-1.504;2023-04-15T06:35:57;6.50;99.90
24410;DHT22;12543;53.364;-1.504;2023-04-15T06:38:27;6.50;99.90
24410;DHT22;12543;53.364;-1.504;2023-04-15T06:40:54;6.60;99.90
24410;DHT22;12543;53.364;-1.504;2023-04-15T06:43:21;6.60;99.90
24410;DHT22;12543;53.364;-1.504;2023-04-15T06:45:48;6.60;99.90
24410;DHT22;12543;53.364;-1.504;2023-04-15T06:48:15;6.60;99.90
24410;DHT22;12543;53.364;-1.504;2023-04-15T06:50:42;6.70;99.90
24410;DHT22;12543;53.364;-1.504;2023-04-15T06:53:08;6.70;99.90
24410;DHT22;12543;53.364;-1.504;2023-04-15T06:55:35;6.70;99.90
24410;DHT22;12543;53.364;-1.504;2023-04-15T06:58:02;6.70;99.90
24410;DHT22;12543;53.364;-1.504;2023-04-15T07:00:29;6.70;99.90
24410;DHT22;12543;53.364;-1.504;2023-04-15T07:02:56;6.80;99.90
24410;DHT22;12543;53.364;-1.504;2023-04-15T07:05:23;6.80;99.90
24410;DHT22;12543;53.364;-1.504;2023-04-15T07:07:51;6.90;99.90
24410;DHT22;12543;53.364;-1.504;2023-04-15T07:10:18;6.90;99.90
24410;DHT22;12543;53.364;-1.504;2023-04-15T07:12:46;6.90;99.90
24410;DHT22;12543;53.364;-1.504;2023-04-15T07:15:13;6.90;99.90
24410;DHT22;12543;53.364;-1.504;2023-04-15T07:17:40;7.00;99.90
24410;DHT22;12543;53.364;-1.504;2023-04-15T07:20:09;7.00;99.90
24410;DHT22;12543;53.364;-1.504;2023-04-15T07:22:36;7.00;99.90
24410;DHT22;12543;53.364;-1.504;2023-04-15T07:25:03;7.00;99.90
24410;DHT22;12543;53.364;-1.504;2023-04-15T07:27:32;7.10;99.90
24410;DHT22;12543;53.364;-1.504;2023-04-15T07:29:59;7.10;99.90
24410;DHT22;12543;53.364;-1.504;2023-04-15T07:32:26;7.20;99.90
24410;DHT22;12543;53.364;-1.504;2023-04-15T07:34:53;7.20;99.90
24410;DHT22;12543;53.364;-1.504;2023-04-15T07:37:20;7.30;99.90
24410;DHT22;12543;53.364;-1.504;2023-04-15T07:39:47;7.30;99.90
24410;DHT22;12543;53.364;-1.504;2023-04-15T07:42:14;7.30;99.90
24410;DHT22;12543;53.364;-1.504;2023-04-15T07:44:42;7.30;99.90
24410;DHT22;12543;53.364;-1.504;2023-04-15T07:47:11;7.40;99.90
24410;DHT22;12543;53.364;-1.504;2023-04-15T07:49:39;7.40;99.90
24410;DHT22;12543;53.364;-1.504;2023-04-15T07:52:18;7.40;99.90
24410;DHT22;12543;53.364;-1.504;2023-04-15T07:54:44;7.50;99.90
24410;DHT22;12543;53.364;-1.504;2023-04-15T07:57:11;7.50;99.90
24410;DHT22;12543;53.364;-1.504;2023-04-15T07:59:38;7.50;99.90
24410;DHT22;12543;53.364;-1.504;2023-04-15T08:02:05;7.60;99.90
24410;DHT22;12543;53.364;-1.504;2023-04-15T08:04:32;7.60;99.90
24410;DHT22;12543;53.364;-1.504;2023-04-15T08:07:00;7.70;99.90
24410;DHT22;12543;53.364;-1.504;2023-04-15T08:09:27;7.80;99.90
24410;DHT22;12543;53.364;-1.504;2023-04-15T08:11:54;7.80;99.90
24410;DHT22;12543;53.364;-1.504;2023-04-15T08:14:23;7.90;99.90
24410;DHT22;12543;53.364;-1.504;2023-04-15T08:16:50;7.90;99.90
24410;DHT22;12543;53.364;-1.504;2023-04-15T08:19:17;8.00;99.90
24410;DHT22;12543;53.364;-1.504;2023-04-15T08:21:43;8.10;99.90
24410;DHT22;12543;53.364;-1.504;2023-04-15T08:24:11;8.10;99.90
24410;DHT22;12543;53.364;-1.504;2023-04-15T08:26:38;8.20;99.90
24410;DHT22;12543;53.364;-1.504;2023-04-15T08:29:05;8.20;99.90
24410;DHT22;12543;53.364;-1.504;2023-04-15T08:31:32;8.20;99.90
24410;DHT22;12543;53.364;-1.504;2023-04-15T08:33:59;8.30;99.90
24410;DHT22;12543;53.364;-1.504;2023-04-15T08:36:26;8.30;99.90
24410;DHT22;12543;53.364;-1.504;2023-04-15T08:38:54;8.30;99.90
24410;DHT22;12543;53.364;-1.504;2023-04-15T08:41:21;8.30;99.90
24410;DHT22;12543;53.364;-1.504;2023-04-15T08:43:52;8.40;99.90
24410;DHT22;12543;53.364;-1.504;2023-04-15T08:46:20;8.40;99.90
24410;DHT22;12543;53.364;-1.504;2023-04-15T08:48:48;8.40;99.90
24410;DHT22;12543;53.364;-1.504;2023-04-15T08:51:16;8.50;99.90
24410;DHT22;12543;53.364;-1.504;2023-04-15T08:53:43;8.60;99.90
24410;DHT22;12543;53.364;-1.504;2023-04-15T08:56:11;8.70;99.90
24410;DHT22;12543;53.364;-1.504;2023-04-15T08:58:38;8.70;99.90
24410;DHT22;12543;53.364;-1.504;2023-04-15T09:01:05;8.80;99.90
24410;DHT22;12543;53.364;-1.504;2023-04-15T09:03:32;8.80;99.90
24410;DHT22;12543;53.364;-1.504;2023-04-15T09:06:00;8.90;99.90
24410;DHT22;12543;53.364;-1.504;2023-04-15T09:08:27;9.00;99.90
24410;DHT22;12543;53.364;-1.504;2023-04-15T09:10:54;9.10;99.90
24410;DHT22;12543;53.364;-1.504;2023-04-15T09:13:21;9.10;99.90
24410;DHT22;12543;53.364;-1.504;2023-04-15T09:15:48;9.30;99.90
24410;DHT22;12543;53.364;-1.504;2023-04-15T09:18:32;9.40;99.90
24410;DHT22;12543;53.364;-1.504;2023-04-15T09:21:17;9.50;99.90
24410;DHT22;12543;53.364;-1.504;2023-04-15T09:23:58;9.60;99.90
24410;DHT22;12543;53.364;-1.504;2023-04-15T09:26:32;9.80;99.90
24410;DHT22;12543;53.364;-1.504;2023-04-15T09:29:06;9.90;99.90
24410;DHT22;12543;53.364;-1.504;2023-04-15T09:31:34;10.00;99.90
24410;DHT22;12543;53.364;-1.504;2023-04-15T09:34:02;10.20;99.90
24410;DHT22;12543;53.364;-1.504;2023-04-15T09:36:36;10.40;99.90
24410;DHT22;12543;53.364;-1.504;2023-04-15T09:39:04;10.80;99.90
24410;DHT22;12543;53.364;-1.504;2023-04-15T09:41:31;11.20;99.90
24410;DHT22;12543;53.364;-1.504;2023-04-15T09:43:59;11.70;99.90
24410;DHT22;12543;53.364;-1.504;2023-04-15T09:46:39;12.20;99.90
24410;DHT22;12543;53.364;-1.504;2023-04-15T09:49:07;12.50;99.90
24410;DHT22;12543;53.364;-1.504;2023-04-15T09:51:34;12.50;99.90
24410;DHT22;12543;53.364;-1.504;2023-04-15T09:54:01;12.60;99.90
24410;DHT22;12543;53.364;-1.504;2023-04-15T09:56:37;12.60;99.90
24410;DHT22;12543;53.364;-1.504;2023-04-15T09:59:07;12.70;99.90
24410;DHT22;12543;53.364;-1.504;2023-04-15T10:01:35;12.70;99.90
24410;DHT22;12543;53.364;-1.504;2023-04-15T10:04:03;12.70;99.90
24410;DHT22;12543;53.364;-1.504;2023-04-15T10:06:30;12.70;99.90
24410;DHT22;12543;53.364;-1.504;2023-04-15T10:08:58;12.60;99.90
24410;DHT22;12543;53.364;-1.504;2023-04-15T10:11:29;12.50;99.90
24410;DHT22;12543;53.364;-1.504;2023-04-15T10:13:57;12.40;99.90
24410;DHT22;12543;53.364;-1.504;2023-04-15T10:16:25;12.20;99.90
24410;DHT22;12543;53.364;-1.504;2023-04-15T10:18:54;12.10;99.90
24410;DHT22;12543;53.364;-1.504;2023-04-15T10:21:21;11.90;99.90
24410;DHT22;12543;53.364;-1.504;2023-04-15T10:23:49;11.70;99.90
24410;DHT22;12543;53.364;-1.504;2023-04-15T10:26:16;11.70;99.90
24410;DHT22;12543;53.364;-1.504;2023-04-15T10:28:43;11.70;99.90
24410;DHT22;12543;53.364;-1.504;2023-04-15T10:31:10;11.60;99.90
24410;DHT22;12543;53.364;-1.504;2023-04-15T10:33:38;11.70;99.90
24410;DHT22;12543;53.364;-1.504;2023-04-15T10:36:05;11.70;99.90
24410;DHT22;12543;53.364;-1.504;2023-04-15T10:38:37;11.70;99.90
24410;DHT22;12543;53.364;-1.504;2023-04-15T10:41:23;11.90;99.90
24410;DHT22;12543;53.364;-1.504;2023-04-15T10:43:54;12.20;99.90
24410;DHT22;12543;53.364;-1.504;2023-04-15T10:46:22;12.70;99.90
24410;DHT22;12543;53.364;-1.504;2023-04-15T10:48:51;13.20;99.90
24410;DHT22;12543;53.364;-1.504;2023-04-15T10:51:28;13.90;99.90
24410;DHT22;12543;53.364;-1.504;2023-04-15T10:53:56;14.70;99.90
24410;DHT22;12543;53.364;-1.504;2023-04-15T10:56:26;15.30;99.90
24410;DHT22;12543;53.364;-1.504;2023-04-15T10:58:54;15.80;99.90
24410;DHT22;12543;53.364;-1.504;2023-04-15T11:01:21;16.30;99.90
24410;DHT22;12543;53.364;-1.504;2023-04-15T11:03:48;16.80;99.90
24410;DHT22;12543;53.364;-1.504;2023-04-15T11:06:17;17.00;99.90
24410;DHT22;12543;53.364;-1.504;2023-04-15T11:08:55;17.30;99.90
24410;DHT22;12543;53.364;-1.504;2023-04-15T11:11:22;17.50;99.90
24410;DHT22;12543;53.364;-1.504;2023-04-15T11:13:49;17.90;99.90
24410;DHT22;12543;53.364;-1.504;2023-04-15T11:16:18;18.20;99.90
24410;DHT22;12543;53.364;-1.504;2023-04-15T11:18:54;18.50;99.90
24410;DHT22;12543;53.364;-1.504;2023-04-15T11:21:23;18.90;99.90
24410;DHT22;12543;53.364;-1.504;2023-04-15T11:23:50;19.20;99.90
24410;DHT22;12543;53.364;-1.504;2023-04-15T11:26:17;19.30;99.90
24410;DHT22;12543;53.364;-1.504;2023-04-15T11:28:44;19.60;99.90
24410;DHT22;12543;53.364;-1.504;2023-04-15T11:31:15;19.80;99.90
24410;DHT22;12543;53.364;-1.504;2023-04-15T11:33:53;20.00;99.90
24410;DHT22;12543;53.364;-1.504;2023-04-15T11:36:20;20.20;99.90
24410;DHT22;12543;53.364;-1.504;2023-04-15T11:38:47;20.20;99.90
24410;DHT22;12543;53.364;-1.504;2023-04-15T11:41:14;20.10;99.90
24410;DHT22;12543;53.364;-1.504;2023-04-15T11:43:41;19.80;99.90
24410;DHT22;12543;53.364;-1.504;2023-04-15T11:46:08;19.70;99.90
24410;DHT22;12543;53.364;-1.504;2023-04-15T11:48:35;19.70;99.90
24410;DHT22;12543;53.364;-1.504;2023-04-15T11:51:03;19.90;99.90
24410;DHT22;12543;53.364;-1.504;2023-04-15T11:56:04;20.40;99.90
24410;DHT22;12543;53.364;-1.504;2023-04-15T11:58:33;20.40;99.90
24410;DHT22;12543;53.364;-1.504;2023-04-15T12:01:00;20.30;99.90
24410;DHT22;12543;53.364;-1.504;2023-04-15T12:06:11;19.70;99.90
24410;DHT22;12543;53.364;-1.504;2023-04-15T12:11:18;18.90;99.90
24410;DHT22;12543;53.364;-1.504;2023-04-15T12:13:46;18.60;99.90
24410;DHT22;12543;53.364;-1.504;2023-04-15T12:16:16;18.20;99.90
24410;DHT22;12543;53.364;-1.504;2023-04-15T12:18:47;17.90;99.90
24410;DHT22;12543;53.364;-1.504;2023-04-15T12:21:18;17.60;99.90
24410;DHT22;12543;53.364;-1.504;2023-04-15T12:23:48;17.20;99.90
24410;DHT22;12543;53.364;-1.504;2023-04-15T12:26:16;17.00;99.90
24410;DHT22;12543;53.364;-1.504;2023-04-15T12:28:44;16.70;99.90
24410;DHT22;12543;53.364;-1.504;2023-04-15T12:31:11;16.50;99.90
24410;DHT22;12543;53.364;-1.504;2023-04-15T12:33:40;16.20;99.90
24410;DHT22;12543;53.364;-1.504;2023-04-15T12:36:07;16.00;99.90
24410;DHT22;12543;53.364;-1.504;2023-04-15T12:38:34;15.80;99.90
24410;DHT22;12543;53.364;-1.504;2023-04-15T12:41:01;15.70;99.90
24410;DHT22;12543;53.364;-1.504;2023-04-15T12:43:28;15.50;99.90
24410;DHT22;12543;53.364;-1.504;2023-04-15T12:45:55;15.30;99.90
24410;DHT22;12543;53.364;-1.504;2023-04-15T12:48:22;15.20;99.90
24410;DHT22;12543;53.364;-1.504;2023-04-15T12:50:49;15.10;99.90
24410;DHT22;12543;53.364;-1.504;2023-04-15T12:53:19;15.00;99.90
24410;DHT22;12543;53.364;-1.504;2023-04-15T12:55:46;14.90;99.90
24410;DHT22;12543;53.364;-1.504;2023-04-15T12:58:15;14.80;99.90
24410;DHT22;12543;53.364;-1.504;2023-04-15T13:00:43;14.80;99.90
24410;DHT22;12543;53.364;-1.504;2023-04-15T13:03:10;14.70;99.90
24410;DHT22;12543;53.364;-1.504;2023-04-15T13:05:37;14.70;99.90
24410;DHT22;12543;53.364;-1.504;2023-04-15T13:08:07;14.70;99.90
24410;DHT22;12543;53.364;-1.504;2023-04-15T13:10:34;14.70;99.90
24410;DHT22;12543;53.364;-1.504;2023-04-15T13:13:02;14.60;99.90
24410;DHT22;12543;53.364;-1.504;2023-04-15T13:15:29;14.60;99.90
24410;DHT22;12543;53.364;-1.504;2023-04-15T13:17:56;14.60;99.90
24410;DHT22;12543;53.364;-1.504;2023-04-15T13:20:23;14.60;99.90
24410;DHT22;12543;53.364;-1.504;2023-04-15T13:22:52;14.60;99.90
24410;DHT22;12543;53.364;-1.504;2023-04-15T13:25:19;14.60;99.90
24410;DHT22;12543;53.364;-1.504;2023-04-15T13:27:46;14.60;99.90
24410;DHT22;12543;53.364;-1.504;2023-04-15T13:30:13;14.50;99.90
24410;DHT22;12543;53.364;-1.504;2023-04-15T13:32:40;14.40;99.90
24410;DHT22;12543;53.364;-1.504;2023-04-15T13:35:07;14.40;99.90
24410;DHT22;12543;53.364;-1.504;2023-04-15T13:37:35;14.30;99.90
24410;DHT22;12543;53.364;-1.504;2023-04-15T13:40:02;14.30;99.90
24410;DHT22;12543;53.364;-1.504;2023-04-15T13:42:29;14.20;99.90
24410;DHT22;12543;53.364;-1.504;2023-04-15T13:44:56;14.10;99.90
24410;DHT22;12543;53.364;-1.504;2023-04-15T13:47:23;14.00;99.90
24410;DHT22;12543;53.364;-1.504;2023-04-15T13:49:50;13.90;99.90
24410;DHT22;12543;53.364;-1.504;2023-04-15T13:52:18;13.80;99.90
24410;DHT22;12543;53.364;-1.504;2023-04-15T13:54:45;13.70;99.90
24410;DHT22;12543;53.364;-1.504;2023-04-15T13:57:33;13.70;99.90
24410;DHT22;12543;53.364;-1.504;2023-04-15T14:00:00;13.70;99.90
24410;DHT22;12543;53.364;-1.504;2023-04-15T14:02:31;13.70;99.90
24410;DHT22;12543;53.364;-1.504;2023-04-15T14:04:59;13.70;99.90
24410;DHT22;12543;53.364;-1.504;2023-04-15T14:07:27;13.70;99.90
24410;DHT22;12543;53.364;-1.504;2023-04-15T14:09:54;13.70;99.90
24410;DHT22;12543;53.364;-1.504;2023-04-15T14:12:21;13.60;99.90
24410;DHT22;12543;53.364;-1.504;2023-04-15T14:14:48;13.60;99.90
24410;DHT22;12543;53.364;-1.504;2023-04-15T14:17:15;13.60;99.90
24410;DHT22;12543;53.364;-1.504;2023-04-15T14:19:42;13.60;99.90
24410;DHT22;12543;53.364;-1.504;2023-04-15T14:22:09;13.50;99.90
24410;DHT22;12543;53.364;-1.504;2023-04-15T14:24:36;13.50;99.90
24410;DHT22;12543;53.364;-1.504;2023-04-15T14:27:03;13.60;99.90
24410;DHT22;12543;53.364;-1.504;2023-04-15T14:29:30;13.60;99.90
24410;DHT22;12543;53.364;-1.504;2023-04-15T14:31:57;13.50;99.90
24410;DHT22;12543;53.364;-1.504;2023-04-15T14:34:38;13.50;99.90
24410;DHT22;12543;53.364;-1.504;2023-04-15T14:37:09;13.50;99.90
24410;DHT22;12543;53.364;-1.504;2023-04-15T14:39:36;13.50;99.90
24410;DHT22;12543;53.364;-1.504;2023-04-15T14:42:03;13.40;99.90
24410;DHT22;12543;53.364;-1.504;2023-04-15T14:44:32;13.40;99.90
24410;DHT22;12543;53.364;-1.504;2023-04-15T14:46:59;13.40;99.90
24410;DHT22;12543;53.364;-1.504;2023-04-15T14:49:26;13.40;99.90
24410;DHT22;12543;53.364;-1.504;2023-04-15T14:51:53;13.40;99.90
24410;DHT22;12543;53.364;-1.504;2023-04-15T14:54:20;13.40;99.90
24410;DHT22;12543;53.364;-1.504;2023-04-15T14:56:48;13.40;99.90
24410;DHT22;12543;53.364;-1.504;2023-04-15T14:59:15;13.40;99.90
24410;DHT22;12543;53.364;-1.504;2023-04-15T15:01:42;13.40;99.90
24410;DHT22;12543;53.364;-1.504;2023-04-15T15:04:09;13.40;99.90
24410;DHT22;12543;53.364;-1.504;2023-04-15T15:06:36;13.40;99.90
24410;DHT22;12543;53.364;-1.504;2023-04-15T15:09:04;13.40;99.90
24410;DHT22;12543;53.364;-1.504;2023-04-15T15:11:31;13.40;99.90
24410;DHT22;12543;53.364;-1.504;2023-04-15T15:13:58;13.40;99.90
24410;DHT22;12543;53.364;-1.504;2023-04-15T15:16:27;13.40;99.90
24410;DHT22;12543;53.364;-1.504;2023-04-15T15:18:56;13.40;99.90
24410;DHT22;12543;53.364;-1.504;2023-04-15T15:21:23;13.40;99.90
24410;DHT22;12543;53.364;-1.504;2023-04-15T15:23:50;13.30;99.90
24410;DHT22;12543;53.364;-1.504;2023-04-15T15:26:17;13.30;99.90
24410;DHT22;12543;53.364;-1.504;2023-04-15T15:28:45;13.30;99.90
24410;DHT22;12543;53.364;-1.504;2023-04-15T15:31:11;13.40;99.90
24410;DHT22;12543;53.364;-1.504;2023-04-15T15:33:39;13.30;99.90
24410;DHT22;12543;53.364;-1.504;2023-04-15T15:36:06;13.30;99.90
24410;DHT22;12543;53.364;-1.504;2023-04-15T15:38:33;13.30;99.90